Terminal Aerodrome Forecast
Issued by NWS Pocatello, ID

Home | Current Version | Previous Version | Text Only | Print | Product List | Glossary On
Versions: 1 2 3 4 5 6 7 8 9 10 11 12 13 14 15 16 17 18 19
000
FTUS45 KPIH 250500
TAFBYI
TAF
KBYI 250520Z 2506/2606 VRB06KT P6SM OVC090
     FM251100 VRB05KT P6SM -SHRA SCT020 OVC035
     FM251800 26011KT P6SM -SHRA OVC040
     FM260300 VRB06KT P6SM -SHRA OVC040=

USA.gov is the U.S. government's official web portal to all federal, state and local government web resources and services.